Time;durP1;ratioP1;P1;durP2;ratioP2;P2;SDS_P1;SDS_P2;PMS_P1;PMS_P2;Temp;Humidity;BMP_temperature;BMP_pressure;BME280_temperature;BME280_humidity;BME280_pressure;Samples;Min_cycle;Max_cycle;Signal;HPM_P1;HPM_P2
2022/02/12 00:00:51;;;;;;;20.48;13.38;;;0.00;99.90;;;;;;1920084;75;21093;-78
2022/02/12 00:03:20;;;;;;;21.30;13.15;;;0.00;99.90;;;;;;1919932;75;21086;-74
2022/02/12 00:05:48;;;;;;;35.33;14.93;;;-0.10;99.90;;;;;;1917672;75;21136;-76
2022/02/12 00:08:16;;;;;;;21.35;13.70;;;-0.10;99.90;;;;;;1918140;75;21392;-75
2022/02/12 00:10:44;;;;;;;24.15;13.70;;;-0.10;99.90;;;;;;1917906;75;21108;-75
2022/02/12 00:13:11;;;;;;;19.20;13.45;;;-0.20;99.90;;;;;;1917535;75;21055;-75
2022/02/12 00:15:40;;;;;;;22.35;13.95;;;-0.10;99.90;;;;;;1917450;75;21054;-76
2022/02/12 00:18:10;;;;;;;22.75;14.30;;;-0.10;99.90;;;;;;1917000;75;21116;-75
2022/02/12 00:20:37;;;;;;;29.82;15.53;;;-0.10;99.90;;;;;;1916928;75;21116;-76
2022/02/12 00:23:05;;;;;;;23.90;15.40;;;-0.10;99.90;;;;;;1916850;75;21141;-76
2022/02/12 00:25:33;;;;;;;25.12;16.25;;;-0.10;99.90;;;;;;1916942;75;21049;-75
2022/02/12 00:28:02;;;;;;;26.60;16.25;;;-0.10;99.90;;;;;;1916929;75;21100;-76
2022/02/12 00:30:29;;;;;;;22.98;16.55;;;-0.10;99.90;;;;;;1916517;75;21046;-77
2022/02/12 00:32:57;;;;;;;27.95;17.48;;;-0.10;99.90;;;;;;1916577;75;21160;-78
2022/02/12 00:35:24;;;;;;;26.50;17.23;;;-0.10;99.90;;;;;;1916691;75;21379;-76
2022/02/12 00:37:52;;;;;;;25.50;16.70;;;0.00;99.90;;;;;;1916828;75;21121;-76
2022/02/12 00:40:22;;;;;;;22.25;15.63;;;0.10;99.90;;;;;;1916934;74;21169;-76
2022/02/12 00:42:48;;;;;;;27.93;15.40;;;0.10;99.90;;;;;;1916668;74;21091;-77
2022/02/12 00:45:15;;;;;;;21.57;15.20;;;0.10;99.90;;;;;;1916765;75;21483;-77
2022/02/12 00:47:42;;;;;;;28.10;13.62;;;0.10;99.90;;;;;;1916648;75;21034;-75
2022/02/12 00:50:10;;;;;;;17.75;13.70;;;0.10;99.90;;;;;;1916804;75;21480;-76
2022/02/12 00:52:37;;;;;;;23.20;14.73;;;0.20;99.90;;;;;;1916747;75;21037;-78
2022/02/12 00:55:05;;;;;;;20.15;14.93;;;0.20;99.90;;;;;;1916626;75;21061;-77
2022/02/12 00:57:33;;;;;;;17.80;12.45;;;0.20;99.90;;;;;;1900789;73;21050;-78
2022/02/12 01:00:00;;;;;;;23.50;14.38;;;0.20;99.90;;;;;;1920064;75;21082;-76
2022/02/12 01:02:28;;;;;;;23.05;12.95;;;0.20;99.90;;;;;;1917050;74;21427;-76
2022/02/12 01:04:57;;;;;;;23.83;14.80;;;0.20;99.90;;;;;;1916630;74;21516;-77
2022/02/12 01:07:24;;;;;;;22.87;14.55;;;0.00;99.90;;;;;;1896706;75;21035;-76
2022/02/12 01:09:52;;;;;;;21.27;13.68;;;0.20;99.90;;;;;;1916864;74;21143;-76
2022/02/12 01:12:19;;;;;;;25.88;14.45;;;0.20;99.90;;;;;;1916724;75;21092;-78
2022/02/12 01:14:49;;;;;;;29.23;15.65;;;0.20;99.90;;;;;;1906297;74;21087;-76
2022/02/12 01:17:26;;;;;;;28.83;16.17;;;0.30;99.90;;;;;;1887991;75;21427;-78
2022/02/12 01:19:53;;;;;;;28.30;15.03;;;0.30;99.90;;;;;;1884700;75;21538;-77
2022/02/12 01:22:22;;;;;;;28.02;14.13;;;0.40;99.90;;;;;;1905826;73;21086;-76
2022/02/12 01:24:49;;;;;;;25.05;14.38;;;0.20;99.90;;;;;;1901738;74;21068;-77
2022/02/12 01:27:17;;;;;;;20.88;14.68;;;0.20;99.90;;;;;;1889970;74;21052;-77
2022/02/12 01:29:44;;;;;;;24.32;14.98;;;0.00;99.90;;;;;;1913389;74;21074;-76
2022/02/12 01:32:12;;;;;;;25.37;14.23;;;0.10;99.90;;;;;;1911638;74;21459;-77
2022/02/12 01:34:39;;;;;;;29.63;16.10;;;0.10;99.90;;;;;;1916918;74;21062;-78
2022/02/12 01:37:07;;;;;;;33.53;15.78;;;0.00;99.90;;;;;;1917024;74;21039;-79
2022/02/12 01:39:35;;;;;;;24.25;15.70;;;-0.10;99.90;;;;;;1899274;74;21166;-77
2022/02/12 01:42:02;;;;;;;33.50;16.12;;;-0.10;99.90;;;;;;1891956;74;21062;-77
2022/02/12 01:44:32;;;;;;;31.17;16.65;;;-0.20;99.90;;;;;;1891846;74;21434;-77
2022/02/12 01:46:59;;;;;;;24.15;15.63;;;-0.10;99.90;;;;;;1898032;74;21458;-77
2022/02/12 01:49:28;;;;;;;46.70;16.20;;;-0.10;99.90;;;;;;1899509;74;21085;-78
2022/02/12 01:51:56;;;;;;;30.80;15.85;;;-0.30;99.90;;;;;;1915261;74;21219;-76
2022/02/12 01:54:24;;;;;;;24.82;15.88;;;-0.20;99.90;;;;;;1917591;74;21094;-78
2022/02/12 01:56:51;;;;;;;24.20;16.00;;;-0.10;99.90;;;;;;1910284;74;21083;-78
2022/02/12 01:59:22;;;;;;;26.10;15.75;;;0.00;99.90;;;;;;1913963;74;21082;-77
2022/02/12 02:01:49;;;;;;;44.03;14.93;;;0.00;99.90;;;;;;1917091;74;21474;-78
2022/02/12 02:04:17;;;;;;;20.43;14.58;;;0.00;99.90;;;;;;1902321;74;21145;-78
2022/02/12 02:06:46;;;;;;;20.70;14.68;;;-0.10;99.90;;;;;;1902988;74;21153;-77
2022/02/12 02:09:18;;;;;;;27.35;14.47;;;0.00;99.90;;;;;;1912281;74;21046;-77
2022/02/12 02:11:47;;;;;;;23.15;14.35;;;0.10;99.90;;;;;;1912165;74;21065;-77
2022/02/12 02:14:15;;;;;;;22.07;13.53;;;0.10;99.90;;;;;;1917017;75;21045;-77
2022/02/12 02:16:43;;;;;;;34.90;14.83;;;0.10;99.90;;;;;;1917090;75;21120;-77
2022/02/12 02:19:13;;;;;;;20.82;14.05;;;0.00;99.90;;;;;;1916983;75;21104;-78
2022/02/12 02:21:40;;;;;;;35.00;15.40;;;0.10;99.90;;;;;;1917007;75;21104;-76
2022/02/12 02:24:09;;;;;;;24.35;14.63;;;0.00;99.90;;;;;;1916979;75;21513;-78
2022/02/12 02:26:37;;;;;;;28.07;14.55;;;-0.10;99.90;;;;;;1916926;75;21042;-76
2022/02/12 02:29:04;;;;;;;46.42;14.07;;;0.00;99.90;;;;;;1916814;75;21148;-78
2022/02/12 02:31:32;;;;;;;26.60;13.38;;;-0.10;99.90;;;;;;1916806;74;21030;-78
2022/02/12 02:33:59;;;;;;;25.48;13.30;;;0.00;99.90;;;;;;1916689;75;21469;-77
2022/02/12 02:36:26;;;;;;;26.10;14.63;;;0.00;99.90;;;;;;1916607;75;21135;-76
2022/02/12 02:38:56;;;;;;;28.07;13.65;;;-0.10;99.90;;;;;;1916799;74;21423;-76
2022/02/12 02:41:24;;;;;;;31.20;12.80;;;-0.10;99.90;;;;;;1916852;74;21408;-78
2022/02/12 02:43:51;;;;;;;60.58;13.93;;;-0.20;99.90;;;;;;1916826;75;21007;-78
2022/02/12 02:46:20;;;;;;;70.67;14.30;;;-0.30;99.90;;;;;;1916706;75;21426;-78
2022/02/12 02:48:47;;;;;;;32.08;14.80;;;-0.40;99.90;;;;;;1916630;75;21128;-77
2022/02/12 02:56:45;;;;;;;43.08;15.23;;;-0.30;99.90;;;;;;1916672;75;21144;-76
2022/02/12 02:59:12;;;;;;;50.92;15.60;;;-0.20;99.90;;;;;;1916672;75;21407;-78
2022/02/12 03:01:42;;;;;;;22.00;15.03;;;-0.20;99.90;;;;;;1916707;75;21046;-78
2022/02/12 03:04:09;;;;;;;31.77;14.90;;;-0.20;99.90;;;;;;1916660;75;21128;-77
2022/02/12 03:06:36;;;;;;;20.40;14.30;;;-0.10;99.90;;;;;;1916834;75;21151;-78
2022/02/12 03:09:04;;;;;;;67.72;14.35;;;-0.10;99.90;;;;;;1916764;75;21018;-77
2022/02/12 03:11:31;;;;;;;30.37;15.88;;;-0.20;99.90;;;;;;1916644;75;21034;-78
2022/02/12 03:13:58;;;;;;;42.60;14.68;;;-0.10;99.90;;;;;;1916601;75;21414;-77
2022/02/12 03:16:26;;;;;;;20.35;13.85;;;-0.20;99.90;;;;;;1916755;74;21166;-78
2022/02/12 03:18:53;;;;;;;30.95;14.58;;;-0.40;99.90;;;;;;1916668;75;21104;-78
2022/02/12 03:21:20;;;;;;;65.47;14.63;;;-0.30;99.90;;;;;;1916835;74;21422;-77
2022/02/12 03:23:48;;;;;;;170.90;15.25;;;-0.50;99.90;;;;;;1916589;75;21144;-76
2022/02/12 03:26:15;;;;;;;21.25;13.95;;;-0.70;99.90;;;;;;1916581;75;21434;-77
2022/02/12 03:28:43;;;;;;;57.75;15.38;;;-0.80;99.90;;;;;;1916502;74;21003;-77
2022/02/12 03:31:10;;;;;;;53.25;15.38;;;-0.80;99.90;;;;;;1916423;74;21133;-77
2022/02/12 03:33:38;;;;;;;71.42;16.80;;;-0.80;99.90;;;;;;1916680;75;21108;-76
2022/02/12 03:36:05;;;;;;;39.78;13.93;;;-0.80;99.90;;;;;;1916568;75;21116;-77
2022/02/12 03:38:35;;;;;;;42.55;15.90;;;-0.90;99.90;;;;;;1916680;75;21038;-77
2022/02/12 03:41:06;;;;;;;26.05;15.93;;;-0.80;99.90;;;;;;1916586;75;21143;-77
2022/02/12 03:43:35;;;;;;;66.40;16.15;;;-0.80;99.90;;;;;;1916423;75;21438;-77
2022/02/12 03:46:03;;;;;;;29.67;16.20;;;-0.80;99.90;;;;;;1916160;75;21422;-77
2022/02/12 03:48:31;;;;;;;25.90;15.63;;;-0.90;99.90;;;;;;1916507;75;21100;-76
2022/02/12 03:50:58;;;;;;;41.20;15.75;;;-0.70;99.90;;;;;;1916619;75;21034;-76
2022/02/12 03:53:25;;;;;;;34.45;14.78;;;-0.70;99.90;;;;;;1916479;74;21119;-76
2022/02/12 03:55:53;;;;;;;48.78;16.77;;;-0.70;99.90;;;;;;1916636;75;21058;-76
2022/02/12 03:58:20;;;;;;;28.90;15.00;;;-0.80;99.90;;;;;;1916566;75;21034;-77
2022/02/12 04:00:48;;;;;;;30.08;13.85;;;-0.80;99.90;;;;;;1916642;75;21096;-77
2022/02/12 04:03:16;;;;;;;24.95;14.90;;;-0.70;99.90;;;;;;1916477;75;21506;-76
2022/02/12 04:05:46;;;;;;;29.87;14.40;;;-0.70;99.90;;;;;;1916521;75;21128;-77
2022/02/12 04:08:21;;;;;;;78.42;14.53;;;-0.70;99.90;;;;;;1916545;75;21054;-78
2022/02/12 04:10:44;;;;;;;24.20;15.28;;;-0.90;99.90;;;;;;1915027;74;21073;-77
2022/02/12 04:13:11;;;;;;;29.10;14.15;;;-1.00;99.90;;;;;;1916421;75;21445;-77
2022/02/12 04:15:39;;;;;;;24.77;15.53;;;-1.00;99.90;;;;;;1916609;75;21567;-77
2022/02/12 04:18:11;;;;;;;63.65;15.68;;;-0.90;99.90;;;;;;1916431;75;21168;-76
2022/02/12 04:20:38;;;;;;;34.10;15.28;;;-1.00;99.90;;;;;;1916725;75;21038;-76
2022/02/12 04:23:06;;;;;;;26.15;14.35;;;-0.80;99.90;;;;;;1916629;75;21038;-78
2022/02/12 04:25:36;;;;;;;84.62;16.12;;;-0.70;99.90;;;;;;1916581;75;21053;-77
2022/02/12 04:28:07;;;;;;;89.62;15.70;;;-1.00;99.90;;;;;;1916547;74;21160;-76
2022/02/12 04:30:36;;;;;;;26.82;15.70;;;-1.20;99.90;;;;;;1916576;75;21419;-76
2022/02/12 04:33:04;;;;;;;35.43;12.75;;;-1.10;99.90;;;;;;1916361;74;21096;-77
2022/02/12 04:35:31;;;;;;;23.07;13.78;;;-1.10;99.90;;;;;;1916415;75;21046;-77
2022/02/12 04:37:58;;;;;;;30.92;14.07;;;-1.10;99.90;;;;;;1916582;75;21046;-77
2022/02/12 04:40:25;;;;;;;21.25;12.98;;;-1.00;99.90;;;;;;1916537;75;21038;-77
2022/02/12 04:42:53;;;;;;;29.00;14.33;;;-1.00;99.90;;;;;;1916693;75;21111;-77
2022/02/12 04:45:21;;;;;;;21.75;14.43;;;-1.00;99.90;;;;;;1916581;74;21042;-77
2022/02/12 04:47:48;;;;;;;22.85;13.03;;;-1.00;99.90;;;;;;1916457;75;21066;-76
2022/02/12 04:50:15;;;;;;;37.30;13.28;;;-1.10;99.90;;;;;;1916644;75;21022;-76
2022/02/12 04:52:43;;;;;;;93.07;13.70;;;-1.10;99.90;;;;;;1916575;75;21034;-76
2022/02/12 04:55:10;;;;;;;24.75;13.13;;;-1.20;99.90;;;;;;1916492;74;21099;-76
2022/02/12 04:57:37;;;;;;;25.27;13.58;;;-1.40;99.90;;;;;;1916524;75;21081;-77
2022/02/12 05:00:05;;;;;;;35.38;13.88;;;-1.40;99.90;;;;;;1916418;75;21054;-75
2022/02/12 05:02:33;;;;;;;26.97;13.68;;;-1.30;99.90;;;;;;1916369;75;21499;-75
2022/02/12 05:05:00;;;;;;;19.25;13.03;;;-1.30;99.90;;;;;;1916728;75;21042;-77
2022/02/12 05:07:27;;;;;;;24.20;13.75;;;-1.40;99.90;;;;;;1916586;75;21078;-77
2022/02/12 05:09:55;;;;;;;21.17;13.83;;;-1.30;99.90;;;;;;1916320;75;21520;-76
2022/02/12 05:12:22;;;;;;;18.45;12.18;;;-1.30;99.90;;;;;;1916383;74;21007;-77
2022/02/12 05:14:49;;;;;;;19.00;13.20;;;-1.20;99.90;;;;;;1916464;75;21426;-77
2022/02/12 05:17:16;;;;;;;23.62;12.35;;;-1.10;99.90;;;;;;1916346;75;21034;-76
2022/02/12 05:19:44;;;;;;;27.67;13.05;;;-1.10;99.90;;;;;;1916364;75;21504;-76
2022/02/12 05:22:11;;;;;;;34.60;12.82;;;-1.10;99.90;;;;;;1916616;75;21170;-77
2022/02/12 05:24:38;;;;;;;23.90;12.90;;;-1.10;99.90;;;;;;1916508;75;21419;-77
2022/02/12 05:27:06;;;;;;;41.23;14.03;;;-1.00;99.90;;;;;;1916531;75;21042;-76
2022/02/12 05:29:33;;;;;;;49.85;12.53;;;-1.00;99.90;;;;;;1916576;75;21462;-76
2022/02/12 05:32:01;;;;;;;53.58;13.83;;;-1.10;99.90;;;;;;1916360;75;21030;-77
2022/02/12 05:34:28;;;;;;;20.32;12.28;;;-1.30;99.90;;;;;;1916524;75;21435;-76
2022/02/12 05:36:55;;;;;;;18.75;12.70;;;-1.20;99.90;;;;;;1916551;75;21007;-77
2022/02/12 05:39:23;;;;;;;38.02;13.00;;;-1.20;99.90;;;;;;1916590;75;21046;-75
2022/02/12 05:41:50;;;;;;;18.98;12.78;;;-1.10;99.90;;;;;;1916627;75;21030;-76
2022/02/12 05:44:17;;;;;;;26.25;12.80;;;-1.10;99.90;;;;;;1916585;75;21151;-76
2022/02/12 05:46:45;;;;;;;20.60;13.53;;;-1.10;99.90;;;;;;1916464;75;21072;-75
2022/02/12 05:49:12;;;;;;;17.35;12.93;;;-1.00;99.90;;;;;;1916465;75;21042;-76
2022/02/12 05:51:39;;;;;;;20.50;12.50;;;-1.00;99.90;;;;;;1916596;75;21011;-77
2022/02/12 05:54:06;;;;;;;20.30;12.93;;;-1.00;99.90;;;;;;1916583;75;21065;-76
2022/02/12 05:56:36;;;;;;;39.38;13.78;;;-0.90;99.90;;;;;;1916488;75;21003;-75
2022/02/12 05:59:08;;;;;;;26.90;13.85;;;-0.80;99.90;;;;;;1916497;74;21532;-76
2022/02/12 06:01:32;;;;;;;26.40;14.45;;;-0.90;99.90;;;;;;1915928;74;21094;-77
2022/02/12 06:03:59;;;;;;;37.98;13.70;;;-1.00;99.90;;;;;;1916505;75;21426;-77
2022/02/12 06:06:26;;;;;;;45.75;13.98;;;-1.00;99.90;;;;;;1916655;75;21039;-76
2022/02/12 06:08:54;;;;;;;24.82;12.37;;;-1.20;99.90;;;;;;1916449;75;21493;-76
2022/02/12 06:11:24;;;;;;;37.00;13.65;;;-1.20;99.90;;;;;;1916432;75;21066;-78
2022/02/12 06:13:52;;;;;;;26.65;13.93;;;-1.30;99.90;;;;;;1916399;74;21106;-76
2022/02/12 06:16:21;;;;;;;35.75;14.65;;;-1.40;99.90;;;;;;1916476;75;21045;-76
2022/02/12 06:18:48;;;;;;;49.80;13.78;;;-1.40;99.90;;;;;;1916516;74;21030;-77
2022/02/12 06:21:16;;;;;;;21.97;13.80;;;-1.50;99.90;;;;;;1916479;74;20999;-77
2022/02/12 06:23:43;;;;;;;18.82;13.60;;;-1.50;99.90;;;;;;1916546;75;21041;-76
2022/02/12 06:26:11;;;;;;;26.48;14.63;;;-1.40;99.90;;;;;;1892746;75;21139;-77
2022/02/12 06:28:38;;;;;;;26.85;14.68;;;-1.40;99.90;;;;;;1915506;74;21083;-77
2022/02/12 06:31:06;;;;;;;19.95;13.75;;;-1.20;99.90;;;;;;1868996;75;21144;-77
2022/02/12 06:33:35;;;;;;;22.98;14.50;;;-1.20;99.90;;;;;;1914706;74;21138;-77
2022/02/12 06:36:04;;;;;;;37.55;14.60;;;-1.10;99.90;;;;;;1899754;74;21100;-76
2022/02/12 06:38:31;;;;;;;47.85;13.90;;;-1.10;99.90;;;;;;1905090;73;21073;-76
2022/02/12 06:40:59;;;;;;;36.98;13.60;;;-1.20;99.90;;;;;;1915917;74;21148;-75
2022/02/12 06:43:26;;;;;;;52.25;13.13;;;-1.20;99.90;;;;;;1898370;74;21083;-77
2022/02/12 06:45:53;;;;;;;31.82;11.68;;;-1.40;99.90;;;;;;1884052;75;21456;-76
2022/02/12 06:48:21;;;;;;;88.15;14.33;;;-1.60;99.90;;;;;;1901501;74;21536;-75
2022/02/12 06:50:48;;;;;;;62.13;13.13;;;-1.60;99.90;;;;;;1898823;74;21153;-77
2022/02/12 06:53:16;;;;;;;46.58;13.18;;;-1.60;99.90;;;;;;1896675;74;21540;-76
2022/02/12 06:55:43;;;;;;;79.12;15.28;;;-1.60;99.90;;;;;;1918420;74;21074;-75
2022/02/12 06:58:10;;;;;;;69.67;13.83;;;-1.60;99.90;;;;;;1913813;74;21202;-76
2022/02/12 07:00:38;;;;;;;63.00;16.05;;;-1.60;99.90;;;;;;1884666;74;21281;-77
2022/02/12 07:03:05;;;;;;;53.10;15.20;;;-1.60;99.90;;;;;;1908435;74;21066;-75
2022/02/12 07:05:32;;;;;;;62.27;16.42;;;-1.60;99.90;;;;;;1905792;74;21081;-75
2022/02/12 07:08:00;;;;;;;82.00;17.35;;;-1.80;99.90;;;;;;1914407;75;21083;-76
2022/02/12 07:10:29;;;;;;;75.62;18.50;;;-1.80;99.90;;;;;;1908273;75;21157;-77
2022/02/12 07:12:56;;;;;;;154.20;18.17;;;-1.60;99.90;;;;;;1901785;74;21205;-76
2022/02/12 07:15:23;;;;;;;82.55;19.02;;;-1.70;99.90;;;;;;1887656;74;21066;-77
2022/02/12 07:17:53;;;;;;;67.87;18.50;;;-1.70;99.90;;;;;;1895842;74;21056;-75
2022/02/12 07:20:20;;;;;;;49.97;17.77;;;-1.60;99.90;;;;;;1894195;74;21445;-75
2022/02/12 07:22:48;;;;;;;45.85;17.20;;;-1.60;99.90;;;;;;1900586;74;21132;-76
2022/02/12 07:25:17;;;;;;;36.50;17.10;;;-1.50;99.90;;;;;;1899038;74;21069;-76
2022/02/12 07:28:04;;;;;;;73.70;20.48;;;-1.50;99.90;;;;;;1915616;73;21054;-75
2022/02/12 07:30:31;;;;;;;58.48;18.87;;;-1.30;99.90;;;;;;1909116;75;21557;-76
2022/02/12 07:32:59;;;;;;;93.30;20.32;;;-1.30;99.90;;;;;;1906872;74;21078;-75
2022/02/12 07:35:26;;;;;;;44.98;19.87;;;-1.20;99.90;;;;;;1909283;74;21483;-75
2022/02/12 07:37:53;;;;;;;38.67;19.87;;;-1.20;99.90;;;;;;1910370;75;21080;-76
2022/02/12 07:40:23;;;;;;;31.45;18.50;;;-1.20;99.90;;;;;;1910720;75;21456;-75
2022/02/12 07:42:51;;;;;;;39.10;18.85;;;-1.10;99.90;;;;;;1909716;75;21042;-74
2022/02/12 07:45:18;;;;;;;47.75;19.60;;;-1.00;99.90;;;;;;1908457;74;21074;-75
2022/02/12 07:47:45;;;;;;;36.93;19.35;;;-1.00;99.90;;;;;;1908960;74;21475;-76
2022/02/12 07:50:14;;;;;;;36.95;20.70;;;-1.00;99.90;;;;;;1911561;74;21160;-75
2022/02/12 07:52:43;;;;;;;42.95;20.32;;;-0.80;99.90;;;;;;1913388;74;21107;-76
2022/02/12 07:55:12;;;;;;;34.05;19.45;;;-1.00;99.90;;;;;;1911353;74;21091;-76
2022/02/12 07:57:40;;;;;;;39.60;23.18;;;-1.10;99.90;;;;;;1908382;74;21115;-77
2022/02/12 08:00:07;;;;;;;37.55;20.60;;;-1.00;99.90;;;;;;1914129;74;21043;-75
2022/02/12 08:02:37;;;;;;;39.35;23.12;;;-1.00;99.90;;;;;;1913830;75;21100;-77
2022/02/12 08:05:05;;;;;;;41.90;23.90;;;-0.80;99.90;;;;;;1911815;74;21082;-76
2022/02/12 08:07:34;;;;;;;37.55;20.52;;;-0.80;99.90;;;;;;1910506;74;21095;-75
2022/02/12 08:11:22;;;;;;;38.88;22.40;;;-0.80;99.90;;;;;;1910491;74;21083;-77
2022/02/12 08:12:34;;;;;;;44.48;21.15;;;-0.70;99.90;;;;;;1903794;74;21185;-77
2022/02/12 08:15:02;;;;;;;35.73;19.05;;;-0.50;99.90;;;;;;1914673;74;21031;-77
2022/02/12 08:17:29;;;;;;;31.55;20.02;;;-0.40;99.90;;;;;;1908744;75;21130;-76
2022/02/12 08:19:58;;;;;;;35.08;19.67;;;-0.40;99.90;;;;;;1910340;74;21612;-75
2022/02/12 08:22:26;;;;;;;36.42;19.20;;;-0.40;99.90;;;;;;1888468;75;21031;-77
2022/02/12 08:24:54;;;;;;;38.33;18.82;;;-0.50;99.90;;;;;;1876535;76;21163;-75
2022/02/12 08:27:22;;;;;;;37.05;19.87;;;-0.50;99.90;;;;;;1882016;75;21007;-75
2022/02/12 08:29:49;;;;;;;51.05;20.70;;;-0.50;99.90;;;;;;1886492;75;21090;-77
2022/02/12 08:32:17;;;;;;;37.45;21.57;;;-0.40;99.90;;;;;;1893354;76;21229;-77
2022/02/12 08:34:44;;;;;;;39.25;22.27;;;-0.40;99.90;;;;;;1888428;75;21092;-76
2022/02/12 08:37:11;;;;;;;37.20;19.73;;;-0.50;99.90;;;;;;1854445;75;21152;-77
2022/02/12 08:39:40;;;;;;;31.95;19.60;;;-0.30;99.90;;;;;;1852447;77;21173;-77
2022/02/12 08:42:07;;;;;;;40.33;20.88;;;-0.10;99.90;;;;;;1893238;74;21084;-76
2022/02/12 08:44:35;;;;;;;35.28;20.08;;;0.10;99.90;;;;;;1855915;77;21179;-76
2022/02/12 08:47:03;;;;;;;34.35;21.40;;;0.20;99.90;;;;;;1907012;74;21045;-77
2022/02/12 08:49:30;;;;;;;39.98;21.85;;;0.40;99.90;;;;;;1910283;74;21207;-74
2022/02/12 08:51:59;;;;;;;39.55;20.70;;;0.40;99.90;;;;;;1909508;74;21163;-74
2022/02/12 08:54:26;;;;;;;33.90;21.33;;;0.30;99.90;;;;;;1911795;74;21086;-75
2022/02/12 08:56:53;;;;;;;40.15;19.75;;;0.40;99.90;;;;;;1913224;74;21167;-75
2022/02/12 08:59:21;;;;;;;35.13;20.20;;;0.60;99.90;;;;;;1862521;76;21172;-78
2022/02/12 09:01:48;;;;;;;29.32;18.98;;;0.50;99.90;;;;;;1874103;76;21054;-75
2022/02/12 09:04:16;;;;;;;33.25;18.40;;;0.70;99.90;;;;;;1912076;74;21027;-75
2022/02/12 09:06:45;;;;;;;33.83;18.87;;;1.10;99.90;;;;;;1910597;75;21136;-75
2022/02/12 09:09:13;;;;;;;35.68;18.67;;;1.50;99.90;;;;;;1910448;73;21499;-76
2022/02/12 09:11:42;;;;;;;33.58;17.57;;;1.70;99.90;;;;;;1910475;75;21595;-74
2022/02/12 09:14:10;;;;;;;30.43;17.75;;;1.70;99.90;;;;;;1910644;75;21160;-77
2022/02/12 09:16:37;;;;;;;25.30;15.80;;;1.70;99.90;;;;;;1910499;75;21012;-75
2022/02/12 09:19:06;;;;;;;26.15;15.78;;;2.30;99.90;;;;;;1910401;75;21055;-75
2022/02/12 09:21:34;;;;;;;34.83;17.05;;;2.80;99.90;;;;;;1910726;75;21543;-75
2022/02/12 09:24:01;;;;;;;26.25;16.15;;;2.80;99.90;;;;;;1910419;75;21058;-75
2022/02/12 09:26:32;;;;;;;27.62;16.20;;;2.60;99.90;;;;;;1910400;75;21042;-75
2022/02/12 09:29:04;;;;;;;23.50;15.23;;;3.30;99.90;;;;;;1910488;75;21105;-76
2022/02/12 09:31:35;;;;;;;24.23;14.85;;;3.50;99.90;;;;;;1910534;75;21096;-75
2022/02/12 09:34:02;;;;;;;23.90;14.70;;;3.40;99.90;;;;;;1910481;75;21451;-75
2022/02/12 09:36:29;;;;;;;23.75;14.45;;;3.50;99.90;;;;;;1910423;75;21120;-76
2022/02/12 09:38:57;;;;;;;23.05;13.35;;;3.80;99.90;;;;;;1910527;75;21532;-79
2022/02/12 09:41:26;;;;;;;23.18;13.65;;;4.80;99.90;;;;;;1910613;75;21050;-78
2022/02/12 09:43:55;;;;;;;23.38;14.10;;;5.10;99.90;;;;;;1910376;74;21095;-74
2022/02/12 09:46:49;;;;;;;24.43;12.40;;;5.40;99.90;;;;;;1910612;75;21070;-75
2022/02/12 09:49:16;;;;;;;21.93;12.68;;;4.70;99.90;;;;;;1910549;75;21088;-75
2022/02/12 09:51:44;;;;;;;19.70;11.43;;;4.80;99.90;;;;;;1910514;75;21042;-74
2022/02/12 09:54:11;;;;;;;21.10;11.57;;;5.50;99.90;;;;;;1910484;75;21451;-75
2022/02/12 09:56:40;;;;;;;23.62;10.45;;;5.30;99.90;;;;;;1910546;75;21008;-73
2022/02/12 09:59:07;;;;;;;16.90;9.85;;;5.70;99.90;;;;;;1910577;75;21078;-75
2022/02/12 10:01:40;;;;;;;16.27;8.85;;;5.50;99.90;;;;;;1910536;75;21502;-75
2022/02/12 10:04:17;;;;;;;17.23;9.78;;;5.80;99.90;;;;;;1910762;75;21100;-76
2022/02/12 10:06:48;;;;;;;19.30;9.80;;;5.70;99.90;;;;;;1910532;75;21495;-76
2022/02/12 10:09:15;;;;;;;18.45;9.05;;;5.70;99.90;;;;;;1910483;75;21070;-76
2022/02/12 10:11:47;;;;;;;14.63;7.83;;;5.80;99.90;;;;;;1910397;75;21050;-75
2022/02/12 10:14:19;;;;;;;19.48;8.58;;;6.00;99.90;;;;;;1876151;75;21150;-76
2022/02/12 10:16:55;;;;;;;17.42;8.10;;;5.90;99.90;;;;;;1910879;75;21039;-74
2022/02/12 10:19:31;;;;;;;16.42;7.58;;;6.20;99.90;;;;;;1910884;75;21116;-76
2022/02/12 10:22:13;;;;;;;15.98;6.65;;;5.90;99.90;;;;;;1910721;75;21145;-76
2022/02/12 10:24:54;;;;;;;14.80;7.08;;;6.00;99.90;;;;;;1910787;75;21071;-77
2022/02/12 10:27:25;;;;;;;16.00;7.28;;;6.40;99.90;;;;;;1910778;75;21043;-76
2022/02/12 10:29:54;;;;;;;11.95;6.10;;;7.10;99.90;;;;;;1910706;75;21143;-76
2022/02/12 10:32:23;;;;;;;19.32;5.95;;;7.40;99.90;;;;;;1910680;75;21058;-76
2022/02/12 10:34:51;;;;;;;14.58;6.00;;;7.60;99.90;;;;;;1910785;75;21092;-75
2022/02/12 10:37:26;;;;;;;10.30;5.53;;;7.30;99.90;;;;;;1910778;75;21062;-75
2022/02/12 10:39:58;;;;;;;11.53;5.55;;;7.60;99.90;;;;;;1910300;75;21088;-76
2022/02/12 10:42:27;;;;;;;25.82;4.58;;;7.60;99.90;;;;;;1910775;75;21408;-77
2022/02/12 10:44:54;;;;;;;8.33;4.03;;;7.70;99.90;;;;;;1910808;75;21109;-77
2022/02/12 10:47:22;;;;;;;11.63;4.60;;;8.30;99.90;;;;;;1910752;75;21104;-77
2022/02/12 10:49:50;;;;;;;5.87;3.45;;;8.20;99.90;;;;;;1910750;75;21128;-77
2022/02/12 10:52:17;;;;;;;17.73;3.85;;;8.30;99.90;;;;;;1910761;75;21124;-77
2022/02/12 10:54:47;;;;;;;11.60;4.15;;;8.80;99.90;;;;;;1910781;75;21462;-76
2022/02/12 10:57:15;;;;;;;6.00;3.75;;;8.50;99.90;;;;;;1910969;75;21046;-76
2022/02/12 10:59:43;;;;;;;12.88;4.37;;;8.50;99.90;;;;;;1910864;75;21023;-77
2022/02/12 11:02:15;;;;;;;8.80;3.65;;;8.90;99.90;;;;;;1910788;75;21167;-79
2022/02/12 11:04:41;;;;;;;7.55;3.92;;;8.60;99.90;;;;;;1910162;75;21436;-78
2022/02/12 11:07:11;;;;;;;5.87;3.58;;;8.90;99.90;;;;;;1910869;75;21116;-76
2022/02/12 11:09:38;;;;;;;6.92;3.42;;;8.90;99.90;;;;;;1910672;75;21108;-77
2022/02/12 11:12:06;;;;;;;11.60;3.92;;;8.60;99.90;;;;;;1910834;75;21029;-77
2022/02/12 11:14:35;;;;;;;8.78;3.65;;;8.90;99.90;;;;;;1911141;75;21089;-77
2022/02/12 11:17:05;;;;;;;7.95;3.62;;;8.80;99.90;;;;;;1910890;75;21062;-75
2022/02/12 11:19:32;;;;;;;7.30;3.77;;;8.90;99.90;;;;;;1876131;75;21039;-75
2022/02/12 11:22:01;;;;;;;11.55;3.40;;;9.60;99.90;;;;;;1910873;75;21265;-80
2022/02/12 11:24:36;;;;;;;13.00;4.35;;;9.70;99.90;;;;;;1911028;75;21546;-77
2022/02/12 11:27:18;;;;;;;8.53;3.47;;;9.60;99.90;;;;;;1910986;75;21019;-76
2022/02/12 11:29:46;;;;;;;6.90;3.25;;;9.90;99.90;;;;;;1910875;75;21112;-78
2022/02/12 11:32:24;;;;;;;9.10;3.95;;;9.80;99.90;;;;;;1910940;75;21123;-76
2022/02/12 11:35:08;;;;;;;10.08;3.80;;;9.60;99.90;;;;;;1910979;75;21074;-78
2022/02/12 11:37:36;;;;;;;5.05;3.00;;;9.50;99.90;;;;;;1909849;73;21495;-76
2022/02/12 11:40:13;;;;;;;;;;;9.40;99.90;;;;;;1913426;75;21157;-75
2022/02/12 11:42:46;;;;;;;6.30;2.87;;;9.20;99.90;;;;;;1910642;75;20149;-75
2022/02/12 11:45:31;;;;;;;8.80;3.52;;;9.80;99.90;;;;;;1910916;75;21117;-75
2022/02/12 11:48:20;;;;;;;4.47;2.67;;;10.30;99.90;;;;;;1910386;75;21054;-76
2022/02/12 11:51:05;;;;;;;7.85;2.95;;;10.50;99.90;;;;;;1908974;75;21099;-76
2022/02/12 11:53:44;;;;;;;9.05;2.87;;;10.90;99.90;;;;;;1910844;75;21005;-75
2022/02/12 11:56:18;;;;;;;7.03;2.75;;;10.30;99.90;;;;;;1910920;75;21070;-75
2022/02/12 11:58:48;;;;;;;8.45;2.62;;;11.00;99.90;;;;;;1897374;75;21112;-77
2022/02/12 12:01:28;;;;;;;5.58;2.60;;;11.40;99.90;;;;;;1910925;75;21096;-77
2022/02/12 12:04:15;;;;;;;6.33;2.80;;;11.30;99.90;;;;;;1910906;75;21007;-77
2022/02/12 12:07:11;;;;;;;5.67;2.72;;;11.30;99.90;;;;;;1910418;75;21483;-77
2022/02/12 12:09:56;;;;;;;5.17;2.52;;;10.90;99.90;;;;;;1910650;75;21136;-77
2022/02/12 12:12:31;;;;;;;12.53;3.35;;;11.20;99.90;;;;;;1913029;74;21074;-76
2022/02/12 12:15:17;;;;;;;6.60;2.58;;;11.10;99.90;;;;;;1911256;75;21185;-78
2022/02/12 12:17:44;;;;;;;3.40;1.80;;;11.40;99.90;;;;;;1877070;75;21055;-78
2022/02/12 12:20:12;;;;;;;2.37;1.47;;;11.10;99.90;;;;;;1910669;75;21055;-78
2022/02/12 12:22:39;;;;;;;3.42;1.52;;;11.70;99.90;;;;;;1910679;75;21442;-76
2022/02/12 12:25:07;;;;;;;2.58;1.57;;;11.80;99.90;;;;;;1910431;75;21050;-78
2022/02/12 12:27:34;;;;;;;4.08;1.87;;;11.00;99.50;;;;;;1910349;75;21058;-78
2022/02/12 12:32:58;;;;;;;3.62;1.70;;;11.10;99.90;;;;;;1910382;75;21099;-79
2022/02/12 12:35:25;;;;;;;3.40;1.50;;;11.20;99.90;;;;;;1910833;75;21120;-79
2022/02/12 12:37:54;;;;;;;3.08;1.60;;;11.40;98.30;;;;;;1910773;75;21046;-79
2022/02/12 12:40:30;;;;;;;3.27;2.00;;;11.60;99.10;;;;;;1910819;75;21497;-77
2022/02/12 12:43:08;;;;;;;5.50;2.15;;;11.70;97.90;;;;;;1910510;74;21050;-78
2022/02/12 12:45:45;;;;;;;2.45;1.50;;;11.90;96.50;;;;;;1910505;75;21117;-77
2022/02/12 12:48:13;;;;;;;5.62;1.85;;;11.60;96.20;;;;;;1910913;75;21046;-80
2022/02/12 12:50:43;;;;;;;4.20;1.87;;;11.70;97.00;;;;;;1910868;75;21050;-83